Time;durP1;ratioP1;P1;durP2;ratioP2;P2;SDS_P1;SDS_P2;PMS_P1;PMS_P2;Temp;Humidity;BMP_temperature;BMP_pressure;BME280_temperature;BME280_humidity;BME280_pressure;Samples;Min_cycle;Max_cycle;Signal;HPM_P1;HPM_P2
2022/06/01 00:01:21;;;;;;;3.67;2.80;;;11.60;99.90;;;;;;5036345;28;20231;-91
2022/06/01 00:03:53;;;;;;;3.17;2.87;;;11.40;99.90;;;;;;5035969;28;20221;-90
2022/06/01 00:06:22;;;;;;;2.37;2.27;;;11.30;99.90;;;;;;5036327;28;20215;-88
2022/06/01 00:08:49;;;;;;;2.73;2.53;;;11.40;99.90;;;;;;5036404;28;20191;-90
2022/06/01 00:11:22;;;;;;;4.63;2.50;;;11.30;99.90;;;;;;5036002;28;20282;-91
2022/06/01 00:13:51;;;;;;;4.33;2.70;;;11.30;99.90;;;;;;5036359;28;20199;-90
2022/06/01 00:16:21;;;;;;;4.50;2.10;;;11.30;99.90;;;;;;5036104;28;20210;-89
2022/06/01 00:18:48;;;;;;;3.13;2.50;;;11.20;99.90;;;;;;5039907;28;20230;-90
2022/06/01 00:21:16;;;;;;;2.70;2.27;;;11.10;99.90;;;;;;5042667;28;20227;-92
2022/06/01 00:23:46;;;;;;;2.37;2.17;;;11.20;99.90;;;;;;5018525;28;20569;-91
2022/06/01 00:26:20;;;;;;;4.63;2.70;;;11.10;99.90;;;;;;5035511;28;20929;-91
2022/06/01 00:28:50;;;;;;;3.10;2.70;;;11.10;99.90;;;;;;5035758;28;20214;-90
2022/06/01 00:31:38;;;;;;;2.90;2.30;;;11.10;99.90;;;;;;5035804;28;20211;-90
2022/06/01 00:34:07;;;;;;;2.33;2.00;;;11.10;99.90;;;;;;5035677;28;20191;-90
2022/06/01 00:36:36;;;;;;;2.40;2.20;;;11.10;99.90;;;;;;5035488;28;20203;-90
2022/06/01 00:39:06;;;;;;;7.43;2.37;;;11.10;99.90;;;;;;5035987;28;20207;-88
2022/06/01 00:41:39;;;;;;;4.77;2.37;;;11.20;99.90;;;;;;5037051;28;20250;-90
2022/06/01 00:44:07;;;;;;;3.43;1.77;;;11.10;99.90;;;;;;5035260;28;20207;-88
2022/06/01 00:46:36;;;;;;;3.17;2.10;;;11.10;99.90;;;;;;5035701;28;20232;-90
2022/06/01 00:49:15;;;;;;;4.70;2.88;;;11.10;99.90;;;;;;5034789;28;20433;-92
2022/06/01 00:51:49;;;;;;;3.37;2.33;;;11.20;99.90;;;;;;5035506;28;20660;-92
2022/06/01 00:54:18;;;;;;;2.77;2.33;;;11.10;99.90;;;;;;5035180;28;20203;-93
2022/06/01 00:56:55;;;;;;;3.80;1.93;;;11.20;99.90;;;;;;5035350;28;20195;-92
2022/06/01 00:59:33;;;;;;;3.07;2.00;;;11.20;99.90;;;;;;5035502;28;20217;-92
2022/06/01 01:02:03;;;;;;;2.00;1.80;;;11.20;99.90;;;;;;5041190;28;20253;-93
2022/06/01 01:04:33;;;;;;;4.47;2.30;;;11.10;99.90;;;;;;5037351;28;20198;-92
2022/06/01 01:07:06;;;;;;;4.47;1.77;;;11.10;99.90;;;;;;5035129;28;20191;-93
2022/06/01 01:09:34;;;;;;;5.30;2.47;;;11.00;99.90;;;;;;5034510;28;20441;-91
2022/06/01 01:12:06;;;;;;;4.13;2.00;;;11.00;99.90;;;;;;5035300;28;20195;-93
2022/06/01 01:14:41;;;;;;;2.30;1.97;;;11.00;99.90;;;;;;5035182;28;20283;-93
2022/06/01 01:17:10;;;;;;;2.80;2.23;;;10.80;99.90;;;;;;5035088;28;20190;-93
2022/06/01 01:19:47;;;;;;;5.03;1.90;;;10.60;99.90;;;;;;5034914;28;20195;-92
2022/06/01 01:22:36;;;;;;;2.93;2.43;;;10.60;99.90;;;;;;5034560;28;20230;-91
2022/06/01 01:25:26;;;;;;;2.13;1.97;;;10.60;99.90;;;;;;5034747;28;20231;-93
2022/06/01 01:27:58;;;;;;;3.27;1.87;;;10.60;99.90;;;;;;5017538;28;20306;-88
2022/06/01 01:30:44;;;;;;;2.78;2.58;;;10.70;99.90;;;;;;5034661;28;20903;-92
2022/06/01 01:33:13;;;;;;;1.83;1.70;;;10.70;99.90;;;;;;5034864;28;20199;-93
2022/06/01 01:35:49;;;;;;;2.80;2.20;;;10.70;99.90;;;;;;5035162;28;20214;-93
2022/06/01 01:38:29;;;;;;;3.40;2.03;;;10.70;99.90;;;;;;5034465;28;20577;-93
2022/06/01 01:41:08;;;;;;;2.93;2.17;;;10.70;99.90;;;;;;5034538;28;20207;-92
2022/06/01 01:43:40;;;;;;;3.60;2.30;;;10.60;99.90;;;;;;5040092;28;20207;-90
2022/06/01 01:46:11;;;;;;;2.50;2.30;;;10.60;99.90;;;;;;5023740;28;20235;-88
2022/06/01 01:48:40;;;;;;;2.40;2.27;;;10.70;99.90;;;;;;5017205;28;20253;-94
2022/06/01 01:51:07;;;;;;;4.10;2.00;;;10.60;99.90;;;;;;5034305;28;20207;-94
2022/06/01 01:53:41;;;;;;;2.40;2.10;;;10.60;99.90;;;;;;5034233;28;20217;-92
2022/06/01 01:56:30;;;;;;;4.13;2.40;;;10.60;99.90;;;;;;5034582;28;20214;-94
2022/06/01 01:59:28;;;;;;;4.73;1.97;;;10.50;99.90;;;;;;5034812;28;20207;-92
2022/06/01 02:02:05;;;;;;;3.17;2.03;;;10.30;99.90;;;;;;5034576;28;20227;-91
2022/06/01 02:07:38;;;;;;;3.93;2.40;;;10.10;99.90;;;;;;4999039;28;20209;-92
2022/06/01 02:12:59;;;;;;;2.70;2.50;;;10.20;99.90;;;;;;5034326;28;20194;-92
2022/06/01 02:15:37;;;;;;;3.27;2.40;;;10.10;99.90;;;;;;5034293;28;20207;-93
2022/06/01 02:18:11;;;;;;;5.50;3.27;;;10.00;99.90;;;;;;5034709;28;20207;-94
2022/06/01 02:20:42;;;;;;;8.23;3.13;;;10.00;99.90;;;;;;5033995;28;20199;-93
2022/06/01 02:23:13;;;;;;;4.67;2.90;;;10.10;99.90;;;;;;5038129;28;20226;-92
2022/06/01 02:25:44;;;;;;;4.17;2.87;;;10.10;99.90;;;;;;5040655;28;20223;-88
2022/06/01 02:28:15;;;;;;;5.60;2.87;;;10.00;99.90;;;;;;5043291;28;20210;-93
2022/06/01 02:30:48;;;;;;;6.57;2.93;;;10.00;99.90;;;;;;5038231;28;20669;-90
2022/06/01 02:33:20;;;;;;;3.13;2.83;;;10.00;99.90;;;;;;5038033;28;20206;-89
2022/06/01 02:35:52;;;;;;;2.77;2.57;;;10.00;99.90;;;;;;5038040;28;20202;-92
2022/06/01 02:38:22;;;;;;;3.67;2.70;;;9.80;99.90;;;;;;5037921;28;20214;-93
2022/06/01 02:40:55;;;;;;;4.70;2.90;;;9.60;99.90;;;;;;5037924;28;20214;-93
2022/06/01 02:43:26;;;;;;;3.67;3.03;;;9.60;99.90;;;;;;5037950;28;20218;-92
2022/06/01 02:45:57;;;;;;;4.13;2.80;;;9.70;99.90;;;;;;5038267;28;20241;-93
2022/06/01 02:48:27;;;;;;;5.00;2.90;;;9.80;99.90;;;;;;5037875;28;20257;-90
2022/06/01 02:50:54;;;;;;;7.70;3.00;;;9.80;99.90;;;;;;5037636;28;20211;-93
2022/06/01 02:53:20;;;;;;;3.23;3.03;;;9.70;99.90;;;;;;5037715;28;20635;-92
2022/06/01 02:56:35;;;;;;;3.53;3.13;;;9.80;99.90;;;;;;5037520;28;20209;-93
2022/06/01 02:59:09;;;;;;;4.60;3.23;;;9.80;99.90;;;;;;5037605;28;20734;-94
2022/06/01 03:01:36;;;;;;;4.20;3.80;;;9.70;99.90;;;;;;5036197;28;20825;-94
2022/06/01 03:04:06;;;;;;;4.90;3.40;;;9.80;99.90;;;;;;5037213;28;20241;-94
2022/06/01 03:06:36;;;;;;;3.73;3.30;;;9.80;99.90;;;;;;5037932;28;20211;-93
2022/06/01 03:09:03;;;;;;;8.50;3.47;;;9.90;99.90;;;;;;5040100;28;20572;-92
2022/06/01 03:11:30;;;;;;;7.87;4.00;;;9.90;99.90;;;;;;5039726;28;20207;-94
2022/06/01 03:14:00;;;;;;;3.87;3.57;;;9.90;99.90;;;;;;5037536;28;20191;-93
2022/06/01 03:16:34;;;;;;;4.77;3.53;;;9.80;99.90;;;;;;5037358;28;20564;-93
2022/06/01 03:19:02;;;;;;;5.83;3.90;;;9.70;99.90;;;;;;5037150;28;20210;-93
2022/06/01 03:21:30;;;;;;;5.00;4.07;;;9.70;99.90;;;;;;5037447;28;20203;-93
2022/06/01 03:24:03;;;;;;;9.00;4.30;;;9.60;99.90;;;;;;5036701;28;20438;-93
2022/06/01 03:26:31;;;;;;;4.43;3.70;;;9.70;99.90;;;;;;5037002;28;20227;-91
2022/06/01 03:29:13;;;;;;;5.67;3.87;;;9.70;99.90;;;;;;5037173;28;20207;-91
2022/06/01 03:31:45;;;;;;;4.87;4.00;;;9.70;99.90;;;;;;5033496;28;20207;-93
2022/06/01 03:34:12;;;;;;;4.87;3.70;;;9.80;99.90;;;;;;5035809;28;20211;-93
2022/06/01 03:36:39;;;;;;;5.23;4.03;;;9.80;99.90;;;;;;5036788;28;20222;-88
2022/06/01 03:39:11;;;;;;;5.50;3.67;;;9.70;99.90;;;;;;5037293;28;20211;-91
2022/06/01 03:41:44;;;;;;;17.30;4.97;;;9.70;99.90;;;;;;5038423;28;20211;-93
2022/06/01 03:47:03;;;;;;;6.17;3.90;;;9.70;99.90;;;;;;5036558;28;20233;-94
2022/06/01 03:49:37;;;;;;;3.83;3.40;;;9.60;99.90;;;;;;5036695;28;20257;-88
2022/06/01 03:52:07;;;;;;;7.10;3.90;;;9.50;99.90;;;;;;5036537;28;20208;-92
2022/06/01 03:54:37;;;;;;;5.17;4.53;;;9.20;99.90;;;;;;5036292;28;20764;-91
2022/06/01 03:57:07;;;;;;;5.70;3.97;;;9.20;99.90;;;;;;5036375;28;20207;-88
2022/06/01 03:59:40;;;;;;;4.97;4.57;;;9.30;99.90;;;;;;5037107;28;20554;-91
2022/06/01 04:02:11;;;;;;;5.43;4.00;;;9.30;99.90;;;;;;5036293;28;20231;-94
2022/06/01 04:04:45;;;;;;;6.27;4.77;;;9.40;99.90;;;;;;5036442;28;20222;-92
2022/06/01 04:07:13;;;;;;;9.90;4.70;;;9.40;99.90;;;;;;5038441;28;20210;-93
2022/06/01 04:09:40;;;;;;;10.37;4.40;;;9.40;99.90;;;;;;5036652;28;20207;-92
2022/06/01 04:12:12;;;;;;;15.80;4.57;;;9.40;99.90;;;;;;5036404;28;20676;-93
2022/06/01 04:14:41;;;;;;;8.23;5.10;;;9.40;99.90;;;;;;5036344;28;20196;-92
2022/06/01 04:17:12;;;;;;;8.57;5.57;;;9.40;99.90;;;;;;5035905;28;20203;-92
2022/06/01 04:19:39;;;;;;;4.80;4.00;;;9.40;99.90;;;;;;5036249;28;20591;-90
2022/06/01 04:22:08;;;;;;;8.13;4.47;;;9.50;99.90;;;;;;5035659;28;20812;-89
2022/06/01 04:24:42;;;;;;;6.03;4.23;;;9.40;99.90;;;;;;5035650;28;20215;-93
2022/06/01 04:27:09;;;;;;;8.00;4.50;;;9.40;99.90;;;;;;5035939;28;20210;-91
2022/06/01 04:29:37;;;;;;;11.00;4.90;;;9.30;99.90;;;;;;5035811;28;20207;-92
2022/06/01 04:32:09;;;;;;;7.77;4.70;;;9.50;99.90;;;;;;5017979;28;20211;-93
2022/06/01 04:34:37;;;;;;;7.60;4.73;;;9.60;99.90;;;;;;5035562;28;20207;-89
2022/06/01 04:37:12;;;;;;;8.20;4.20;;;9.70;99.90;;;;;;5035813;28;20206;-89
2022/06/01 04:39:42;;;;;;;8.03;5.30;;;9.60;99.90;;;;;;5035910;28;20202;-92
2022/06/01 04:42:44;;;;;;;5.40;4.40;;;9.70;99.90;;;;;;5035692;28;20698;-91
2022/06/01 04:45:16;;;;;;;4.43;4.03;;;9.70;99.90;;;;;;5034419;28;20209;-92
2022/06/01 04:47:44;;;;;;;5.70;4.40;;;9.80;99.90;;;;;;5035978;28;20204;-91
2022/06/01 04:50:12;;;;;;;6.53;4.60;;;9.90;99.90;;;;;;5037914;28;20274;-93
2022/06/01 04:52:41;;;;;;;5.73;5.10;;;10.00;99.90;;;;;;5042559;28;20195;-92
2022/06/01 04:55:11;;;;;;;6.07;4.47;;;10.20;99.90;;;;;;5035878;28;20215;-93
2022/06/01 04:57:48;;;;;;;6.67;4.40;;;10.20;99.90;;;;;;5035469;28;20198;-89
2022/06/01 05:00:16;;;;;;;6.13;4.57;;;10.30;99.90;;;;;;5034955;28;20253;-93
2022/06/01 05:02:43;;;;;;;4.87;4.20;;;10.30;99.90;;;;;;5031590;28;20231;-93
2022/06/01 05:05:17;;;;;;;4.87;4.23;;;10.30;99.90;;;;;;5035413;28;20196;-92
2022/06/01 05:07:44;;;;;;;7.07;4.10;;;10.40;99.90;;;;;;5034957;28;20563;-93
2022/06/01 05:10:14;;;;;;;10.00;4.33;;;10.40;99.90;;;;;;5018180;28;20213;-92
2022/06/01 05:12:47;;;;;;;5.17;4.03;;;10.60;99.90;;;;;;5035259;28;20211;-92
2022/06/01 05:15:17;;;;;;;6.57;4.80;;;10.60;99.90;;;;;;5034965;28;20601;-90
2022/06/01 05:17:44;;;;;;;5.67;4.10;;;10.50;99.90;;;;;;5034998;28;20210;-94
2022/06/01 05:20:19;;;;;;;5.00;4.37;;;10.60;99.90;;;;;;5034803;28;20663;-93
2022/06/01 05:22:51;;;;;;;8.30;4.57;;;10.70;99.90;;;;;;5034566;28;20238;-93
2022/06/01 05:25:25;;;;;;;7.20;4.67;;;11.00;99.90;;;;;;5034947;28;20226;-92
2022/06/01 05:27:52;;;;;;;6.67;4.23;;;11.10;99.90;;;;;;5035058;28;20215;-92
2022/06/01 05:30:22;;;;;;;7.53;4.30;;;11.10;99.90;;;;;;5034810;28;20655;-92
2022/06/01 05:32:49;;;;;;;4.80;4.37;;;11.20;99.90;;;;;;5037129;28;20596;-88
2022/06/01 05:35:17;;;;;;;5.33;4.00;;;11.40;99.90;;;;;;5021233;28;20241;-87
2022/06/01 05:37:44;;;;;;;6.93;4.70;;;11.60;99.90;;;;;;5035471;28;20203;-88
2022/06/01 05:40:12;;;;;;;10.30;4.97;;;11.60;99.90;;;;;;5035347;28;20210;-92
2022/06/01 05:42:39;;;;;;;8.10;5.20;;;11.70;99.90;;;;;;5034869;28;20238;-89
2022/06/01 05:45:09;;;;;;;5.37;4.30;;;11.80;99.90;;;;;;5038669;28;20187;-88
2022/06/01 05:47:37;;;;;;;6.87;4.93;;;11.90;99.90;;;;;;5039193;28;20199;-92
2022/06/01 05:50:04;;;;;;;9.87;5.13;;;11.80;99.90;;;;;;5036268;28;20206;-92
2022/06/01 05:52:38;;;;;;;8.53;4.80;;;11.80;99.90;;;;;;5034771;28;20222;-90
2022/06/01 05:55:07;;;;;;;7.60;4.50;;;11.70;99.90;;;;;;5034896;28;20281;-95
2022/06/01 05:57:40;;;;;;;6.43;4.63;;;11.70;99.90;;;;;;5034685;28;20233;-94
2022/06/01 06:00:49;;;;;;;5.10;4.60;;;11.60;99.90;;;;;;5034531;28;20207;-94
2022/06/01 06:03:33;;;;;;;6.67;4.53;;;11.60;99.90;;;;;;5034548;28;20223;-90
2022/06/01 06:06:15;;;;;;;8.00;5.00;;;11.60;99.90;;;;;;5035049;28;20211;-93
2022/06/01 06:08:49;;;;;;;7.40;4.80;;;11.60;99.90;;;;;;5034673;28;20191;-93
2022/06/01 06:11:20;;;;;;;8.13;4.10;;;11.70;99.90;;;;;;5034595;28;20196;-93
2022/06/01 06:13:47;;;;;;;8.27;4.77;;;11.90;99.90;;;;;;5034372;28;20202;-92
2022/06/01 06:16:19;;;;;;;11.37;5.03;;;11.90;99.90;;;;;;5040078;28;20234;-91
2022/06/01 06:18:47;;;;;;;8.60;4.97;;;11.80;99.90;;;;;;5034532;28;20203;-93
2022/06/01 06:21:17;;;;;;;7.17;4.80;;;11.80;99.90;;;;;;5034548;28;20207;-94
2022/06/01 06:23:48;;;;;;;7.03;4.93;;;11.90;99.90;;;;;;5034115;28;20237;-93
2022/06/01 06:26:21;;;;;;;9.13;5.13;;;12.00;99.90;;;;;;5034418;28;20223;-94
2022/06/01 06:28:54;;;;;;;5.77;4.33;;;12.20;99.90;;;;;;5034255;28;20192;-93
2022/06/01 06:31:23;;;;;;;8.63;4.93;;;12.20;99.90;;;;;;5034573;28;20211;-94
2022/06/01 06:33:50;;;;;;;13.60;5.20;;;12.40;99.90;;;;;;5034254;28;20204;-91
2022/06/01 06:36:17;;;;;;;8.33;4.70;;;12.50;99.90;;;;;;5034304;28;20207;-94
2022/06/01 06:39:09;;;;;;;8.63;5.33;;;12.60;99.90;;;;;;5034364;28;20204;-92
2022/06/01 06:41:39;;;;;;;10.30;5.17;;;12.70;99.90;;;;;;5034042;28;20212;-91
2022/06/01 06:44:11;;;;;;;7.87;5.30;;;12.90;99.90;;;;;;5033876;28;20560;-94
2022/06/01 06:46:44;;;;;;;8.60;5.30;;;12.90;99.90;;;;;;5034390;28;20201;-93
2022/06/01 06:49:18;;;;;;;9.80;5.30;;;12.90;99.90;;;;;;5034282;28;20201;-91
2022/06/01 06:52:01;;;;;;;8.23;5.20;;;13.00;99.90;;;;;;5034174;28;20211;-89
2022/06/01 06:54:35;;;;;;;7.17;4.97;;;12.90;99.90;;;;;;5033915;28;20678;-91
2022/06/01 06:57:03;;;;;;;12.67;5.37;;;12.90;99.90;;;;;;5034188;28;20204;-94
2022/06/01 06:59:30;;;;;;;9.43;6.00;;;13.00;99.90;;;;;;5035699;28;20942;-92
2022/06/01 07:01:59;;;;;;;10.83;5.40;;;13.00;99.90;;;;;;5034137;28;20220;-93
2022/06/01 07:04:26;;;;;;;8.87;5.40;;;13.20;99.90;;;;;;5033728;28;20242;-90
2022/06/01 07:06:59;;;;;;;7.93;5.60;;;13.30;99.90;;;;;;5034452;28;20213;-90
2022/06/01 07:09:26;;;;;;;9.23;5.37;;;13.20;99.90;;;;;;5034787;28;20654;-90
2022/06/01 07:11:57;;;;;;;10.37;5.10;;;13.30;99.90;;;;;;5037681;28;20213;-90
2022/06/01 07:14:25;;;;;;;6.80;5.20;;;13.50;99.90;;;;;;5038781;28;20210;-92
2022/06/01 07:16:52;;;;;;;6.90;5.57;;;13.50;99.90;;;;;;5036423;28;20233;-89
2022/06/01 07:19:19;;;;;;;6.87;5.07;;;13.60;99.90;;;;;;5034753;28;20208;-92
2022/06/01 07:21:46;;;;;;;8.43;5.57;;;13.80;99.90;;;;;;5037991;28;20216;-91
2022/06/01 07:24:12;;;;;;;12.83;7.40;;;13.90;99.90;;;;;;5036632;28;20234;-89
2022/06/01 07:26:43;;;;;;;7.20;5.17;;;14.10;99.90;;;;;;5036457;28;20713;-91
2022/06/01 07:29:13;;;;;;;8.23;5.07;;;14.30;99.90;;;;;;5036811;28;20207;-90
2022/06/01 07:31:40;;;;;;;8.93;5.13;;;14.70;99.90;;;;;;5037499;28;20203;-89
2022/06/01 07:34:07;;;;;;;7.83;5.30;;;15.00;99.90;;;;;;5037030;28;20212;-90
2022/06/01 07:36:35;;;;;;;12.07;5.67;;;15.10;99.90;;;;;;5038643;28;20195;-90
2022/06/01 07:44:40;;;;;;;11.87;5.47;;;15.00;99.90;;;;;;5034636;28;20300;-93
2022/06/01 07:47:08;;;;;;;7.23;4.90;;;14.80;99.90;;;;;;5036702;28;20216;-92
2022/06/01 07:49:37;;;;;;;8.37;5.60;;;14.90;99.90;;;;;;5036377;28;20202;-91
2022/06/01 07:52:05;;;;;;;6.50;5.27;;;15.00;99.90;;;;;;5036611;28;20207;-91
2022/06/01 07:54:32;;;;;;;8.83;5.00;;;15.20;99.90;;;;;;5035310;28;20209;-88
2022/06/01 07:57:05;;;;;;;7.50;4.90;;;15.40;99.90;;;;;;5016531;28;20192;-91
2022/06/01 07:59:32;;;;;;;7.37;4.50;;;15.50;99.90;;;;;;5016269;28;20269;-91
2022/06/01 08:02:05;;;;;;;6.30;4.60;;;15.50;99.90;;;;;;5035680;28;20215;-90
2022/06/01 08:04:32;;;;;;;4.63;4.10;;;15.70;99.90;;;;;;5039880;28;20234;-90
2022/06/01 08:06:59;;;;;;;4.97;4.40;;;15.50;99.90;;;;;;5037092;28;20438;-91
2022/06/01 08:09:25;;;;;;;3.93;3.63;;;15.40;99.90;;;;;;5035765;28;20211;-92
2022/06/01 08:14:36;;;;;;;5.53;4.30;;;15.60;99.90;;;;;;5035621;28;20265;-91
2022/06/01 08:17:05;;;;;;;4.80;3.87;;;16.00;99.90;;;;;;5035897;28;20654;-89
2022/06/01 08:19:32;;;;;;;7.03;4.23;;;16.20;99.90;;;;;;5034553;28;20226;-91
2022/06/01 08:21:59;;;;;;;4.57;3.80;;;16.20;99.90;;;;;;5035514;28;20219;-89
2022/06/01 08:24:26;;;;;;;5.40;3.73;;;16.10;99.90;;;;;;5034631;28;20219;-89
2022/06/01 08:26:52;;;;;;;6.60;4.03;;;16.00;99.90;;;;;;5035538;28;20724;-90
2022/06/01 08:29:19;;;;;;;5.83;4.10;;;16.00;99.90;;;;;;5035242;28;20188;-87
2022/06/01 08:31:46;;;;;;;3.80;3.50;;;16.00;99.90;;;;;;5036223;28;20247;-90
2022/06/01 08:34:16;;;;;;;4.10;3.50;;;16.30;99.90;;;;;;5035065;28;20212;-80
2022/06/01 08:36:43;;;;;;;4.00;3.70;;;16.40;99.90;;;;;;5034054;28;20204;-88
2022/06/01 08:39:10;;;;;;;3.93;3.57;;;16.20;99.90;;;;;;5034904;28;20539;-85
2022/06/01 08:41:38;;;;;;;5.17;3.57;;;16.10;99.90;;;;;;5037597;28;20197;-93
2022/06/01 08:44:07;;;;;;;6.00;3.90;;;16.20;99.90;;;;;;5035975;28;20231;-86
2022/06/01 08:46:36;;;;;;;5.50;4.33;;;16.30;99.90;;;;;;5035615;28;20214;-88
2022/06/01 08:49:12;;;;;;;4.97;3.80;;;16.40;99.90;;;;;;5036333;28;20215;-85
2022/06/01 08:51:46;;;;;;;4.80;3.00;;;16.40;99.90;;;;;;5034864;28;20204;-88
2022/06/01 08:54:14;;;;;;;4.65;3.70;;;16.60;99.90;;;;;;5034714;28;20518;-88
2022/06/01 08:56:43;;;;;;;7.43;3.10;;;16.60;99.90;;;;;;5036736;28;20203;-88
2022/06/01 08:59:21;;;;;;;5.60;3.30;;;16.50;99.90;;;;;;5035687;28;20199;-89
2022/06/01 09:01:59;;;;;;;6.40;3.10;;;16.10;99.90;;;;;;5039162;28;20215;-88
2022/06/01 09:04:35;;;;;;;6.97;4.50;;;16.10;99.90;;;;;;5035557;28;20317;-92
2022/06/01 09:07:25;;;;;;;3.93;3.53;;;16.10;99.90;;;;;;5034506;28;20207;-87
2022/06/01 09:10:08;;;;;;;3.47;2.67;;;16.40;99.90;;;;;;5034682;28;20215;-87
2022/06/01 09:12:36;;;;;;;5.97;2.90;;;16.40;99.90;;;;;;5034912;28;20207;-88
2022/06/01 09:15:13;;;;;;;3.00;2.80;;;16.50;99.90;;;;;;5034716;28;20208;-88
2022/06/01 09:17:43;;;;;;;4.03;3.13;;;16.40;99.90;;;;;;5034584;28;20199;-89
2022/06/01 09:23:01;;;;;;;4.80;3.77;;;16.60;99.90;;;;;;5017566;28;20578;-87
2022/06/01 09:25:34;;;;;;;3.47;3.20;;;17.00;99.90;;;;;;5034822;28;20252;-87
2022/06/01 09:28:06;;;;;;;5.40;3.70;;;17.10;99.90;;;;;;5035038;28;20238;-88
2022/06/01 09:30:36;;;;;;;4.87;3.77;;;17.10;99.90;;;;;;5021212;28;20205;-87
2022/06/01 09:33:12;;;;;;;4.27;3.47;;;17.10;99.90;;;;;;5035236;28;20668;-88
2022/06/01 09:35:44;;;;;;;6.33;3.67;;;16.90;99.90;;;;;;5034682;28;20214;-87
2022/06/01 09:38:20;;;;;;;3.57;3.10;;;16.90;99.90;;;;;;5017122;28;20213;-89
2022/06/01 09:40:47;;;;;;;5.80;2.93;;;16.80;99.90;;;;;;5034424;28;20207;-89
2022/06/01 09:43:24;;;;;;;4.32;3.38;;;16.80;99.90;;;;;;5034491;28;20431;-90
2022/06/01 09:45:54;;;;;;;6.53;3.47;;;16.70;99.90;;;;;;5034468;28;20207;-89
2022/06/01 09:48:29;;;;;;;5.27;3.77;;;16.50;99.90;;;;;;5035018;28;20215;-91
2022/06/01 09:51:10;;;;;;;4.13;3.73;;;16.20;99.90;;;;;;5034547;28;20192;-91
2022/06/01 09:53:43;;;;;;;7.23;5.20;;;16.20;99.90;;;;;;5034162;28;20652;-91
2022/06/01 09:56:11;;;;;;;5.47;4.27;;;16.10;99.90;;;;;;5034136;28;20242;-90
2022/06/01 10:07:01;;;;;;;5.40;4.20;;;16.50;99.90;;;;;;5034439;28;20206;-90
2022/06/01 10:09:31;;;;;;;4.53;3.83;;;16.80;99.90;;;;;;5033954;28;20303;-89
2022/06/01 10:11:58;;;;;;;5.20;3.80;;;17.00;99.90;;;;;;5037126;28;20205;-88
2022/06/01 10:14:31;;;;;;;7.47;4.23;;;17.10;99.90;;;;;;5035880;28;20217;-89
2022/06/01 10:17:21;;;;;;;9.30;5.53;;;17.10;99.90;;;;;;5033880;28;20204;-89
2022/06/01 10:19:55;;;;;;;3.83;3.60;;;17.00;99.90;;;;;;5033844;28;20201;-85
2022/06/01 10:22:33;;;;;;;4.07;3.67;;;16.90;99.90;;;;;;5034108;28;20208;-89
2022/06/01 10:25:11;;;;;;;4.00;3.70;;;16.80;99.90;;;;;;5034274;28;20242;-89
2022/06/01 10:27:46;;;;;;;4.13;3.53;;;16.70;99.90;;;;;;5034408;28;20206;-89
2022/06/01 10:30:20;;;;;;;8.17;3.13;;;16.70;99.90;;;;;;5016400;28;20192;-89
2022/06/01 10:32:52;;;;;;;2.63;2.43;;;16.90;99.90;;;;;;5034166;28;20206;-91
2022/06/01 10:35:33;;;;;;;4.23;2.67;;;16.90;99.90;;;;;;5035776;28;20683;-91
2022/06/01 10:38:08;;;;;;;5.77;2.80;;;17.00;99.90;;;;;;5034140;28;20651;-90
2022/06/01 10:40:41;;;;;;;3.60;2.60;;;17.10;99.90;;;;;;5034316;28;20201;-91
2022/06/01 10:43:19;;;;;;;3.10;2.83;;;17.20;99.90;;;;;;5036543;28;20209;-90
2022/06/01 10:45:50;;;;;;;3.67;3.20;;;17.30;99.90;;;;;;5037867;28;20255;-90
2022/06/01 10:48:24;;;;;;;4.90;3.43;;;17.30;99.90;;;;;;5038227;28;20210;-90
2022/06/01 10:50:59;;;;;;;5.37;3.07;;;17.40;99.90;;;;;;5038501;28;20217;-90
2022/06/01 10:53:35;;;;;;;3.43;2.50;;;17.60;99.90;;;;;;5037460;28;20650;-89
2022/06/01 10:56:04;;;;;;;3.57;2.80;;;17.70;99.90;;;;;;5037775;28;20209;-90
2022/06/01 10:58:32;;;;;;;3.57;3.17;;;18.00;99.90;;;;;;5038494;28;20199;-88
2022/06/01 11:01:08;;;;;;;4.03;3.30;;;18.20;99.90;;;;;;5038362;28;20234;-89
2022/06/01 11:04:13;;;;;;;5.23;3.70;;;18.40;99.90;;;;;;5036999;28;20203;-89
2022/06/01 11:07:05;;;;;;;5.33;3.80;;;18.00;99.90;;;;;;5037329;28;20217;-89
2022/06/01 11:09:41;;;;;;;6.40;4.50;;;17.50;99.90;;;;;;5037933;28;20241;-89
2022/06/01 11:12:24;;;;;;;6.53;3.93;;;17.20;99.90;;;;;;5037796;28;20645;-90
2022/06/01 11:15:06;;;;;;;4.60;3.60;;;16.90;99.90;;;;;;5037264;28;20212;-90
2022/06/01 11:17:37;;;;;;;3.23;2.97;;;16.50;99.90;;;;;;5037131;28;20204;-91
2022/06/01 11:20:31;;;;;;;3.17;2.87;;;16.20;99.90;;;;;;5019672;28;20257;-91
2022/06/01 11:23:17;;;;;;;3.00;2.80;;;16.00;99.90;;;;;;5036554;28;20215;-91
2022/06/01 11:25:51;;;;;;;6.00;2.67;;;15.90;99.90;;;;;;5019799;28;20230;-91
2022/06/01 11:28:44;;;;;;;3.93;3.00;;;16.10;99.90;;;;;;5037477;28;20202;-92
2022/06/01 11:31:19;;;;;;;4.07;2.97;;;16.40;99.90;;;;;;5048460;28;20203;-89
2022/06/01 11:33:54;;;;;;;4.90;2.93;;;16.30;99.90;;;;;;5037273;28;20687;-90
2022/06/01 11:36:36;;;;;;;3.00;2.77;;;16.40;99.90;;;;;;5036496;28;20203;-92
2022/06/01 11:39:16;;;;;;;3.20;3.00;;;16.40;99.90;;;;;;5036888;28;20249;-88
2022/06/01 11:42:00;;;;;;;2.90;2.70;;;16.40;99.90;;;;;;5036305;28;20214;-87
2022/06/01 11:44:31;;;;;;;4.57;3.17;;;16.40;99.90;;;;;;5036858;28;20230;-88
2022/06/01 11:47:02;;;;;;;4.93;3.83;;;16.30;99.90;;;;;;5036642;28;20397;-90
2022/06/01 11:49:37;;;;;;;3.17;2.93;;;16.20;99.90;;;;;;5018975;28;20211;-88
2022/06/01 11:52:30;;;;;;;2.70;2.40;;;16.00;99.90;;;;;;5036470;28;20577;-89
2022/06/01 11:55:10;;;;;;;2.60;2.20;;;16.00;99.90;;;;;;5036623;28;20757;-88
2022/06/01 11:57:45;;;;;;;2.23;2.10;;;15.90;99.90;;;;;;5036608;28;20214;-88
2022/06/01 12:00:19;;;;;;;2.10;2.00;;;16.00;99.90;;;;;;5036545;28;20198;-87
2022/06/01 12:02:50;;;;;;;1.80;1.70;;;16.00;99.90;;;;;;5037083;28;20249;-90
2022/06/01 12:05:23;;;;;;;1.83;1.60;;;16.10;99.90;;;;;;5036393;28;20336;-90
2022/06/01 12:07:53;;;;;;;1.70;1.60;;;16.20;99.90;;;;;;5036519;28;20295;-90
2022/06/01 12:10:27;;;;;;;1.93;1.30;;;16.30;99.90;;;;;;5036134;28;20218;-89
2022/06/01 12:13:05;;;;;;;1.43;1.33;;;16.40;99.90;;;;;;5030525;28;20203;-88
2022/06/01 12:15:41;;;;;;;1.40;1.30;;;16.50;99.90;;;;;;5036430;28;20211;-88
2022/06/01 12:18:29;;;;;;;1.70;1.60;;;16.60;99.90;;;;;;5035924;28;20204;-85
2022/06/01 12:21:20;;;;;;;1.40;1.30;;;16.90;99.90;;;;;;5036150;28;20203;-86
2022/06/01 12:30:18;;;;;;;1.43;1.33;;;17.80;99.90;;;;;;5037825;28;20259;-90
2022/06/01 12:33:10;;;;;;;1.50;1.40;;;18.00;99.90;;;;;;5037337;28;20207;-86
2022/06/01 12:35:47;;;;;;;2.17;1.97;;;17.90;99.90;;;;;;5035554;28;20207;-87
2022/06/01 12:38:23;;;;;;;2.78;1.75;;;17.90;99.90;;;;;;5035515;28;20423;-91
2022/06/01 12:41:04;;;;;;;1.87;1.77;;;18.10;99.90;;;;;;5036630;28;20562;-89
2022/06/01 12:43:36;;;;;;;4.23;2.20;;;18.00;99.90;;;;;;5035821;28;20204;-86
2022/06/01 12:46:03;;;;;;;3.17;2.40;;;18.00;99.90;;;;;;5036405;28;20229;-87
2022/06/01 12:48:31;;;;;;;2.23;2.00;;;17.80;99.90;;;;;;5035554;28;20211;-90
2022/06/01 12:51:01;;;;;;;2.77;2.23;;;18.00;99.90;;;;;;5037136;28;20207;-90
2022/06/01 12:53:40;;;;;;;2.90;2.70;;;18.10;99.90;;;;;;5038296;28;20206;-86
2022/06/01 12:56:10;;;;;;;3.63;2.47;;;18.10;99.90;;;;;;5049551;28;20580;-90
2022/06/01 12:58:40;;;;;;;2.70;2.50;;;18.20;99.90;;;;;;5035744;28;20209;-88
2022/06/01 13:01:09;;;;;;;2.50;2.30;;;18.20;99.90;;;;;;5035620;28;20199;-92
2022/06/01 13:03:43;;;;;;;2.57;2.37;;;18.20;99.90;;;;;;5035861;28;20206;-88
2022/06/01 13:06:16;;;;;;;3.30;2.20;;;18.20;99.90;;;;;;5034709;28;20241;-87
2022/06/01 13:08:43;;;;;;;3.97;2.10;;;18.00;99.90;;;;;;5035222;28;20236;-87
2022/06/01 13:11:23;;;;;;;2.90;2.03;;;18.00;99.90;;;;;;5034957;28;20205;-87
2022/06/01 13:13:51;;;;;;;3.70;1.50;;;18.00;99.90;;;;;;5034956;28;20785;-87
2022/06/01 13:16:21;;;;;;;2.10;1.83;;;17.80;99.90;;;;;;5035444;28;20199;-86
2022/06/01 13:18:53;;;;;;;1.50;1.47;;;17.90;99.90;;;;;;5034715;28;20207;-87
2022/06/01 13:21:34;;;;;;;2.03;1.40;;;18.20;99.90;;;;;;5034938;28;20298;-86
2022/06/01 13:24:06;;;;;;;1.83;1.53;;;18.10;99.90;;;;;;5035190;28;20219;-87
2022/06/01 13:26:36;;;;;;;1.57;1.47;;;18.20;99.90;;;;;;5034566;28;20322;-86
2022/06/01 13:29:10;;;;;;;1.90;1.55;;;18.00;99.90;;;;;;5033720;28;20898;-87
2022/06/01 13:31:42;;;;;;;1.77;1.43;;;18.00;99.90;;;;;;5016882;28;20225;-88
2022/06/01 13:34:19;;;;;;;2.20;1.53;;;18.00;99.90;;;;;;5034718;28;20225;-88
2022/06/01 13:36:49;;;;;;;1.50;1.37;;;18.50;99.90;;;;;;5035937;28;20215;-85
2022/06/01 13:39:17;;;;;;;4.37;1.23;;;19.00;99.90;;;;;;5046027;28;20204;-85
2022/06/01 13:41:55;;;;;;;3.37;1.30;;;19.10;99.90;;;;;;5034833;28;20651;-90
2022/06/01 13:44:44;;;;;;;1.57;1.20;;;19.10;99.90;;;;;;5035285;28;20222;-89
2022/06/01 13:47:11;;;;;;;1.20;1.10;;;19.60;99.90;;;;;;5034758;28;20217;-87
2022/06/01 13:49:42;;;;;;;1.60;1.07;;;18.90;99.90;;;;;;5034781;28;20214;-86
2022/06/01 13:52:12;;;;;;;1.30;1.13;;;18.80;99.90;;;;;;5034400;28;20188;-90